Time,TemperatureF,DewpointF,PressureIn,WindDirection,WindDirectionDegrees,WindSpeedMPH,WindSpeedGustMPH,Humidity,HourlyPrecipIn,Conditions,Clouds,dailyrainin,SoftwareType,DateUTC
2013-01-15 00:02:00,20.0,17.0,-100.00,South,170,0.0,1.0,87,-99.99,,,-99.99,,2013-01-15 08:02:00,
2013-01-15 00:12:00,20.0,17.0,-100.00,South,170,0.0,1.0,87,-99.99,,,-99.99,,2013-01-15 08:12:00,
2013-01-15 01:02:00,19.0,17.0,-100.00,North,10,0.0,1.0,91,-99.99,,,-99.99,,2013-01-15 09:02:00,
2013-01-15 01:12:00,19.0,17.0,-100.00,North,10,0.0,1.0,91,-99.99,,,-99.99,,2013-01-15 09:12:00,
2013-01-15 02:02:00,18.0,16.0,-100.00,SW,235,1.0,2.0,91,-99.99,,,-99.99,,2013-01-15 10:02:00,
2013-01-15 03:02:00,18.0,16.0,-100.00,SE,125,0.0,2.0,91,-99.99,,,-99.99,,2013-01-15 11:02:00,
2013-01-15 03:12:00,18.0,16.0,-100.00,SE,125,0.0,2.0,91,-99.99,,,-99.99,,2013-01-15 11:12:00,
2013-01-15 05:03:00,17.0,15.0,-100.00,ESE,110,1.0,1.0,91,-99.99,,,-99.99,,2013-01-15 13:03:00,
2013-01-15 05:12:00,17.0,15.0,-100.00,ESE,110,1.0,1.0,91,-99.99,,,-99.99,,2013-01-15 13:12:00,
2013-01-15 06:02:00,16.0,14.0,-100.00,SSW,200,0.0,2.0,91,-99.99,,,-99.99,,2013-01-15 14:02:00,
2013-01-15 07:03:00,15.0,13.0,-100.00,NE,55,0.0,1.0,91,-99.99,,,-99.99,,2013-01-15 15:03:00,
2013-01-15 07:12:00,15.0,13.0,-100.00,NE,55,0.0,1.0,91,-99.99,,,-99.99,,2013-01-15 15:12:00,
2013-01-15 08:02:00,15.0,13.0,-100.00,SSE,155,0.0,1.0,91,-99.99,,,-99.99,,2013-01-15 16:02:00,
2013-01-15 08:20:00,16.0,13.0,-100.00,SSE,155,1.0,5.0,87,-99.99,,,-99.99,,2013-01-15 16:20:00,
2013-01-15 09:03:00,16.0,13.0,-100.00,SSE,155,1.0,5.0,87,-99.99,,,-99.99,,2013-01-15 17:03:00,
2013-01-15 09:12:00,16.0,13.0,-100.00,SSE,155,1.0,5.0,87,-99.99,,,-99.99,,2013-01-15 17:12:00,
2013-01-15 10:03:00,16.0,13.0,-100.00,East,85,2.0,3.0,87,-99.99,,,-99.99,,2013-01-15 18:03:00,
2013-01-15 11:03:00,19.0,15.0,-100.00,ESE,110,3.0,3.0,84,-99.99,,,-99.99,,2013-01-15 19:03:00,
2013-01-15 11:12:00,19.0,15.0,-100.00,ESE,110,3.0,3.0,84,-99.99,,,-99.99,,2013-01-15 19:12:00,
2013-01-15 13:03:00,26.0,20.0,-100.00,WSW,240,5.0,8.0,77,-99.99,,,-99.99,,2013-01-15 21:03:00,
2013-01-15 13:12:00,26.0,20.0,-100.00,WSW,240,5.0,8.0,77,-99.99,,,-99.99,,2013-01-15 21:12:00,
2013-01-15 18:02:00,24.0,19.0,-100.00,SW,235,1.0,2.0,80,-99.99,,,-99.99,,2013-01-16 02:02:00,
2013-01-15 18:12:00,24.0,19.0,-100.00,SW,235,1.0,2.0,80,-99.99,,,-99.99,,2013-01-16 02:12:00,
2013-01-15 19:02:00,22.0,18.0,-100.00,South,180,3.0,6.0,84,-99.99,,,-99.99,,2013-01-16 03:02:00,
2013-01-15 20:02:00,19.0,16.0,-100.00,NE,50,0.0,1.0,87,-99.99,,,-99.99,,2013-01-16 04:02:00,
2013-01-15 20:12:00,19.0,16.0,-100.00,NE,50,0.0,1.0,87,-99.99,,,-99.99,,2013-01-16 04:12:00,
2013-01-15 21:03:00,18.0,15.0,-100.00,NW,310,0.0,1.0,87,-99.99,,,-99.99,,2013-01-16 05:03:00,
2013-01-15 22:02:00,17.0,15.0,-100.00,NNE,20,0.0,1.0,91,-99.99,,,-99.99,,2013-01-16 06:02:00,
2013-01-15 22:12:00,17.0,15.0,-100.00,NNE,20,0.0,1.0,91,-99.99,,,-99.99,,2013-01-16 06:12:00,
2013-01-15 23:02:00,16.0,14.0,-100.00,ESE,105,0.0,2.0,91,-99.99,,,-99.99,,2013-01-16 07:02:00,